Time;durP1;ratioP1;P1;durP2;ratioP2;P2;SDS_P1;SDS_P2;PMS_P1;PMS_P2;Temp;Humidity;BMP_temperature;BMP_pressure;BME280_temperature;BME280_humidity;BME280_pressure;Samples;Min_cycle;Max_cycle;Signal;HPM_P1;HPM_P2
2023/05/31 00:02:18;;;;;;;4.15;1.10;;;;;;;23.80;29.65;100878.97;5060733;28;20072;-76
2023/05/31 00:04:55;;;;;;;5.45;1.10;;;;;;;23.76;30.49;100884.38;5065836;28;20514;-75
2023/05/31 00:07:23;;;;;;;4.55;1.27;;;;;;;23.76;31.91;100884.38;5059293;28;20132;-75
2023/05/31 00:09:52;;;;;;;3.30;1.45;;;;;;;23.79;30.65;100881.63;5076590;28;20049;-82
2023/05/31 00:12:21;;;;;;;2.85;0.90;;;;;;;23.75;29.81;100872.91;5063491;28;20055;-78
2023/05/31 00:14:49;;;;;;;3.53;1.13;;;;;;;23.65;29.36;100881.06;5072072;28;20044;-75
2023/05/31 00:17:18;;;;;;;1.30;0.88;;;;;;;23.55;30.28;100876.00;5067101;28;20041;-74
2023/05/31 00:19:48;;;;;;;2.58;1.00;;;;;;;23.54;32.21;100882.16;5070748;28;20059;-72
2023/05/31 00:22:17;;;;;;;4.68;1.33;;;;;;;23.44;30.85;100872.72;5081597;28;20076;-74
2023/05/31 00:24:45;;;;;;;3.92;1.05;;;;;;;23.40;31.41;100886.88;5081384;28;20086;-75
2023/05/31 00:27:14;;;;;;;4.00;1.13;;;;;;;23.37;31.39;100889.59;5081461;28;20643;-70
2023/05/31 00:29:43;;;;;;;4.07;1.05;;;;;;;23.32;31.05;100881.78;5092018;28;20037;-74
2023/05/31 00:32:11;;;;;;;4.55;1.38;;;;;;;23.27;28.66;100880.13;5070347;28;20052;-75
2023/05/31 00:34:40;;;;;;;2.40;1.13;;;;;;;23.15;30.20;100876.81;5072264;28;20043;-74
2023/05/31 00:37:10;;;;;;;2.15;0.93;;;;;;;23.12;30.93;100878.69;5067819;28;20422;-74
2023/05/31 00:39:39;;;;;;;3.53;1.00;;;;;;;23.09;30.87;100882.25;5068115;28;20479;-71
2023/05/31 00:42:08;;;;;;;3.83;1.15;;;;;;;23.09;32.23;100879.63;5067733;28;20074;-72
2023/05/31 00:44:37;;;;;;;2.55;1.20;;;;;;;23.09;29.83;100890.16;5064655;28;20516;-71
2023/05/31 00:47:07;;;;;;;2.85;0.90;;;;;;;23.00;31.25;100885.94;5071446;28;20128;-73
2023/05/31 00:49:36;;;;;;;2.70;1.02;;;;;;;22.90;30.89;100878.19;5070789;28;20045;-70
2023/05/31 00:52:05;;;;;;;4.72;1.25;;;;;;;22.85;30.37;100890.59;5061891;28;20048;-70
2023/05/31 00:54:35;;;;;;;5.57;1.30;;;;;;;22.79;31.08;100874.00;5061053;28;20133;-69
2023/05/31 00:57:04;;;;;;;3.38;1.30;;;;;;;22.79;32.09;100874.00;5073280;28;20064;-72
2023/05/31 00:59:33;;;;;;;3.78;1.23;;;;;;;22.80;30.55;100874.88;5062253;28;20051;-70
2023/05/31 01:02:04;;;;;;;3.67;1.10;;;;;;;22.79;31.06;100874.00;5063868;28;20066;-73
2023/05/31 01:04:32;;;;;;;3.13;1.10;;;;;;;22.73;30.96;100867.97;5067725;27;20121;-70
2023/05/31 01:07:02;;;;;;;2.42;1.13;;;;;;;22.70;31.52;100868.91;5067604;28;20517;-70
2023/05/31 01:09:32;;;;;;;5.47;0.98;;;;;;;22.54;30.10;100868.31;5059992;28;20499;-70
2023/05/31 01:12:12;;;;;;;5.68;1.20;;;;;;;22.44;32.30;100865.88;5061900;28;20049;-69
2023/05/31 01:14:50;;;;;;;4.20;1.15;;;;;;;22.37;31.78;100870.38;5055625;28;20049;-71
2023/05/31 01:17:30;;;;;;;2.58;1.10;;;;;;;22.25;31.67;100860.91;5063702;28;20101;-73
2023/05/31 01:20:03;;;;;;;3.75;1.45;;;;;;;22.12;31.42;100861.97;5057562;28;20080;-72
2023/05/31 01:22:57;;;;;;;4.60;1.70;;;;;;;22.05;31.59;100860.34;5063738;28;20056;-72
2023/05/31 01:25:43;;;;;;;4.20;2.25;;;;;;;21.98;31.33;100861.34;5047958;28;20056;-71
2023/05/31 01:28:15;;;;;;;4.53;1.48;;;;;;;21.95;32.92;100872.81;5045524;28;20060;-70
2023/05/31 01:30:47;;;;;;;7.32;1.35;;;;;;;21.87;32.93;100870.25;5060283;28;20449;-70
2023/05/31 01:33:17;;;;;;;6.23;1.30;;;;;;;21.82;31.40;100873.88;5064501;28;20132;-70
2023/05/31 01:35:46;;;;;;;2.35;1.10;;;;;;;21.73;31.78;100869.59;5053370;28;20052;-72
2023/05/31 01:38:15;;;;;;;2.65;0.85;;;;;;;21.67;31.55;100872.31;5056241;28;20488;-70
2023/05/31 01:40:43;;;;;;;7.05;4.97;;;;;;;21.54;31.72;100861.97;5059337;28;20311;-70
2023/05/31 01:43:14;;;;;;;2.97;1.73;;;;;;;21.44;32.75;100870.91;5057201;28;20048;-72
2023/05/31 01:45:43;;;;;;;11.13;2.45;;;;;;;21.39;32.92;100869.19;5041231;28;20060;-71
2023/05/31 01:48:12;;;;;;;4.82;1.38;;;;;;;21.35;33.17;100876.25;5062386;28;20048;-70
2023/05/31 01:50:44;;;;;;;4.85;1.38;;;;;;;21.31;33.88;100874.56;5068025;28;20044;-70
2023/05/31 01:53:13;;;;;;;3.07;1.17;;;;;;;21.26;32.17;100876.38;5060799;28;20117;-70
2023/05/31 01:55:43;;;;;;;3.38;1.13;;;;;;;21.20;33.68;100877.31;5059127;28;20049;-71
2023/05/31 01:58:14;;;;;;;3.55;1.13;;;;;;;21.13;32.23;100871.25;5038544;28;20092;-70
2023/05/31 02:00:43;;;;;;;5.05;2.53;;;;;;;21.05;32.86;100869.59;5051319;28;20060;-70
2023/05/31 02:03:12;;;;;;;4.43;1.02;;;;;;;20.99;32.37;100873.19;5062178;28;20097;-71
2023/05/31 02:05:58;;;;;;;2.15;0.82;;;;;;;20.90;32.31;100875.91;5051526;28;20057;-72
2023/05/31 02:08:28;;;;;;;2.92;0.90;;;;;;;20.81;32.20;100870.75;5038634;28;20069;-70
2023/05/31 02:10:57;;;;;;;8.93;1.10;;;;;;;20.73;33.28;100876.13;5047389;28;20037;-70
2023/05/31 02:13:29;;;;;;;2.08;1.00;;;;;;;20.69;33.88;100877.88;5043384;28;20127;-70
2023/05/31 02:15:58;;;;;;;2.17;1.20;;;;;;;20.63;33.39;100880.56;5046161;28;20048;-69
2023/05/31 02:18:27;;;;;;;1.65;1.00;;;;;;;20.53;32.82;100883.28;5037124;28;20049;-70
2023/05/31 02:20:56;;;;;;;3.13;1.45;;;;;;;20.41;32.99;100884.25;5040840;28;20686;-70
2023/05/31 02:23:25;;;;;;;2.25;0.93;;;;;;;20.36;33.93;100886.06;5041129;28;20049;-70
2023/05/31 02:25:55;;;;;;;2.13;0.85;;;;;;;20.28;33.20;100873.88;5037990;28;20045;-70
2023/05/31 02:28:23;;;;;;;4.93;0.98;;;;;;;20.22;32.96;100883.56;5042876;28;20053;-72
2023/05/31 02:31:01;;;;;;;3.08;0.98;;;;;;;20.14;33.93;100886.25;5046619;28;20112;-71
2023/05/31 02:33:30;;;;;;;5.75;1.20;;;;;;;19.96;32.90;100887.25;5039556;28;20072;-72
2023/05/31 02:35:59;;;;;;;2.08;0.82;;;;;;;19.85;33.78;100889.06;5047603;28;20132;-71
2023/05/31 02:38:28;;;;;;;5.78;1.13;;;;;;;19.73;33.17;100884.78;5043880;28;20052;-71
2023/05/31 02:40:56;;;;;;;2.53;1.00;;;;;;;19.67;34.57;100884.78;5040518;28;20081;-71
2023/05/31 02:43:25;;;;;;;2.60;0.80;;;;;;;19.62;34.24;100894.44;5040991;28;20053;-71
2023/05/31 02:45:53;;;;;;;2.13;1.25;;;;;;;19.52;34.64;100892.75;5038319;28;20049;-70
2023/05/31 02:48:24;;;;;;;2.45;0.73;;;;;;;19.42;34.62;100884.03;5041950;28;20053;-71
2023/05/31 02:50:52;;;;;;;4.50;0.90;;;;;;;19.38;35.52;100888.44;5036774;28;20057;-72
2023/05/31 02:53:21;;;;;;;1.27;0.73;;;;;;;19.33;35.49;100890.19;5044470;28;20049;-71
2023/05/31 02:55:56;;;;;;;1.88;0.90;;;;;;;19.28;35.38;100891.97;5046664;28;20041;-70
2023/05/31 02:58:24;;;;;;;1.00;0.80;;;;;;;19.18;35.89;100890.28;5043773;28;20057;-71
2023/05/31 03:00:53;;;;;;;2.97;1.05;;;;;;;19.11;36.13;100893.81;5040597;28;20056;-70
2023/05/31 03:03:32;;;;;;;7.15;1.13;;;;;;;19.01;36.08;100896.47;5040624;28;20053;-70
2023/05/31 03:06:16;;;;;;;5.70;1.08;;;;;;;18.90;36.34;100900.84;5062106;28;20040;-72
2023/05/31 03:08:45;;;;;;;3.80;1.17;;;;;;;18.83;36.96;100907.00;5065783;28;20060;-72
2023/05/31 03:11:14;;;;;;;3.80;1.13;;;;;;;18.70;37.59;100898.22;5060309;28;20052;-70
2023/05/31 03:13:42;;;;;;;2.78;0.73;;;;;;;18.60;37.32;100902.63;5062044;28;20052;-72
2023/05/31 03:16:11;;;;;;;1.65;0.82;;;;;;;18.50;37.21;100907.88;5067944;28;20045;-72
2023/05/31 03:18:41;;;;;;;2.47;0.73;;;;;;;18.35;37.73;100903.53;5064101;28;20798;-72
2023/05/31 03:21:10;;;;;;;2.15;0.73;;;;;;;18.19;37.16;100905.25;5061539;28;20079;-71
2023/05/31 03:23:39;;;;;;;2.10;0.80;;;;;;;18.01;37.47;100911.34;5064648;28;20059;-71
2023/05/31 03:26:07;;;;;;;4.57;0.75;;;;;;;17.88;38.08;100920.03;5067702;28;20044;-71
2023/05/31 03:28:36;;;;;;;2.15;0.70;;;;;;;17.79;38.85;100919.09;5067958;28;20058;-71
2023/05/31 03:31:05;;;;;;;3.78;0.77;;;;;;;17.69;39.17;100924.34;5063926;28;20096;-72
2023/05/31 03:33:35;;;;;;;3.05;0.77;;;;;;;17.59;38.72;100923.41;5067684;28;20045;-72
2023/05/31 03:36:06;;;;;;;3.53;0.80;;;;;;;17.48;39.04;100926.00;5074683;28;20044;-72
2023/05/31 03:38:34;;;;;;;3.47;1.20;;;;;;;17.35;38.85;100930.28;5062994;28;20053;-72
2023/05/31 03:41:03;;;;;;;8.75;1.13;;;;;;;17.24;39.46;100933.72;5060888;28;20044;-72
2023/05/31 03:43:31;;;;;;;6.25;1.02;;;;;;;17.14;40.51;100936.31;5060297;28;20128;-73
2023/05/31 03:46:00;;;;;;;1.17;0.70;;;;;;;16.98;40.49;100933.59;5065684;28;20049;-74
2023/05/31 03:48:29;;;;;;;4.07;1.08;;;;;;;17.03;41.19;100952.78;5058992;28;20076;-72
2023/05/31 03:51:06;;;;;;;4.43;1.05;;;;;;;16.98;40.83;100954.50;5063321;28;20052;-74
2023/05/31 03:53:35;;;;;;;5.97;1.02;;;;;;;16.89;40.72;100950.97;5059170;28;20048;-73
2023/05/31 03:56:03;;;;;;;3.42;0.90;;;;;;;16.79;41.35;100954.41;5063178;28;20070;-73
2023/05/31 03:58:32;;;;;;;3.08;0.90;;;;;;;16.70;40.96;100955.16;5062043;28;20068;-75
2023/05/31 04:01:00;;;;;;;3.20;0.82;;;;;;;16.62;41.30;100962.06;5061194;28;20049;-73
2023/05/31 04:03:29;;;;;;;4.80;0.93;;;;;;;16.53;40.82;100973.28;5064420;28;20503;-74
2023/05/31 04:05:58;;;;;;;2.75;1.00;;;;;;;16.42;41.89;100985.38;5068158;28;20063;-73
2023/05/31 04:08:28;;;;;;;3.25;0.65;;;;;;;16.34;41.73;100987.06;5065177;28;20088;-73
2023/05/31 04:10:56;;;;;;;1.10;0.68;;;;;;;16.28;41.67;100993.09;5067134;28;20052;-75
2023/05/31 04:13:25;;;;;;;1.95;0.60;;;;;;;16.23;42.19;100999.13;5066862;28;20512;-74
2023/05/31 04:15:55;;;;;;;2.33;0.90;;;;;;;16.17;41.37;101001.66;5069112;28;20056;-73
2023/05/31 04:18:23;;;;;;;2.53;0.80;;;;;;;16.11;41.68;101008.59;5068633;28;20053;-72
2023/05/31 04:20:52;;;;;;;6.80;0.70;;;;;;;16.05;41.74;101008.50;5070652;28;20111;-73
2023/05/31 04:23:20;;;;;;;2.00;0.93;;;;;;;15.97;42.37;101010.16;5066200;28;20036;-74
2023/05/31 04:25:50;;;;;;;4.82;0.95;;;;;;;15.93;41.86;101013.59;5065837;28;20120;-73
2023/05/31 04:28:20;;;;;;;2.30;0.50;;;;;;;15.85;42.42;101015.22;5063452;28;20552;-72
2023/05/31 04:30:49;;;;;;;9.93;1.17;;;;;;;15.76;42.11;101018.63;5063313;28;20079;-71
2023/05/31 04:33:17;;;;;;;0.93;0.70;;;;;;;15.72;41.84;101021.19;5062571;28;20465;-72
2023/05/31 04:35:46;;;;;;;4.55;1.10;;;;;;;15.64;41.99;101024.50;5062953;28;20075;-72
2023/05/31 04:38:16;;;;;;;3.83;1.00;;;;;;;15.59;42.20;101025.31;5070169;28;20615;-74
2023/05/31 04:40:45;;;;;;;3.60;0.65;;;;;;;15.55;42.17;101023.50;5062744;28;20104;-74
2023/05/31 04:43:15;;;;;;;1.83;0.80;;;;;;;15.49;42.20;101026.94;5064478;28;20049;-72
2023/05/31 04:45:44;;;;;;;1.52;0.90;;;;;;;15.43;41.87;101037.25;5069035;28;20037;-73
2023/05/31 04:48:12;;;;;;;3.08;0.93;;;;;;;15.36;41.78;101040.66;5062587;28;20137;-72
2023/05/31 04:50:40;;;;;;;3.42;1.42;;;;;;;15.30;42.27;101041.41;5068429;28;20106;-73
2023/05/31 04:53:09;;;;;;;3.45;1.38;;;;;;;15.24;41.84;101052.63;5065658;28;20044;-71
2023/05/31 04:55:38;;;;;;;9.77;1.55;;;;;;;15.18;42.48;101051.66;5063584;28;20115;-73
2023/05/31 04:58:07;;;;;;;3.50;0.77;;;;;;;15.06;42.10;101049.75;5063908;28;20055;-72
2023/05/31 05:00:38;;;;;;;3.42;0.65;;;;;;;15.00;42.75;101057.47;5064652;28;20124;-72
2023/05/31 05:03:06;;;;;;;3.08;0.88;;;;;;;14.94;42.61;101063.47;5066224;28;20052;-72
2023/05/31 05:05:35;;;;;;;0.90;0.60;;;;;;;14.87;43.90;101059.88;5066838;28;20048;-73
2023/05/31 05:08:04;;;;;;;1.30;0.65;;;;;;;14.82;42.82;101077.16;5058425;28;20048;-72
2023/05/31 05:10:32;;;;;;;1.70;0.70;;;;;;;14.77;43.55;101083.13;5065681;28;20057;-75
2023/05/31 05:13:01;;;;;;;1.38;0.60;;;;;;;14.72;43.36;101087.38;5064585;28;20384;-73
2023/05/31 05:15:29;;;;;;;3.40;0.93;;;;;;;14.65;43.48;101089.00;5070923;28;20056;-74
2023/05/31 05:17:59;;;;;;;3.22;0.68;;;;;;;14.61;43.27;101097.59;5073143;28;20068;-74
2023/05/31 05:20:28;;;;;;;2.08;0.73;;;;;;;14.56;44.46;101094.91;5068263;28;20053;-73
2023/05/31 05:22:57;;;;;;;2.05;0.80;;;;;;;14.53;43.69;101101.78;5065421;28;20745;-74
2023/05/31 05:25:26;;;;;;;2.42;0.70;;;;;;;14.49;44.39;101097.34;5065824;28;20748;-72
2023/05/31 05:27:55;;;;;;;3.70;1.20;;;;;;;14.43;44.26;101103.31;5065412;28;20048;-72
2023/05/31 05:30:23;;;;;;;1.02;0.77;;;;;;;14.35;44.48;101103.16;5067707;28;20533;-73
2023/05/31 05:32:52;;;;;;;3.22;0.80;;;;;;;14.30;44.66;101101.34;5066017;28;20070;-73
2023/05/31 05:35:22;;;;;;;1.50;0.63;;;;;;;14.27;44.45;101102.16;5066380;28;20138;-74
2023/05/31 05:37:52;;;;;;;1.23;0.80;;;;;;;14.24;44.69;101115.09;5065077;28;20079;-73
2023/05/31 05:40:21;;;;;;;6.20;1.25;;;;;;;14.19;45.07;101119.31;5062817;28;20102;-72
2023/05/31 05:42:57;;;;;;;2.83;0.90;;;;;;;14.15;45.00;101120.09;5066764;28;20052;-73
2023/05/31 05:45:26;;;;;;;2.38;0.93;;;;;;;14.13;45.54;101117.50;5070996;28;20051;-74
2023/05/31 05:47:55;;;;;;;2.60;0.60;;;;;;;14.09;45.22;101122.56;5064465;28;20045;-73
2023/05/31 05:50:28;;;;;;;1.90;1.00;;;;;;;14.02;45.67;101127.66;5065504;28;20143;-74
2023/05/31 05:52:56;;;;;;;8.48;0.90;;;;;;;13.97;45.29;101128.41;5066155;28;20048;-74
2023/05/31 05:55:25;;;;;;;4.00;1.33;;;;;;;13.93;45.47;101124.00;5066135;28;20052;-74
2023/05/31 05:57:54;;;;;;;2.13;1.00;;;;;;;13.87;45.46;101129.94;5066943;28;20071;-73
2023/05/31 06:00:24;;;;;;;1.40;0.63;;;;;;;13.82;45.51;101123.75;5065246;28;21195;-74
2023/05/31 06:02:55;;;;;;;1.10;0.82;;;;;;;13.78;45.61;101130.59;5068791;28;20131;-74
2023/05/31 06:05:26;;;;;;;1.15;0.63;;;;;;;13.72;46.07;101126.97;5057830;28;20147;-73
2023/05/31 06:07:55;;;;;;;2.65;0.80;;;;;;;13.67;46.18;101128.59;5040173;28;20048;-74
2023/05/31 06:10:24;;;;;;;2.10;0.70;;;;;;;13.61;46.33;101130.22;5044125;28;20059;-74
2023/05/31 06:12:53;;;;;;;0.70;0.50;;;;;;;13.55;46.45;101137.88;5044426;28;20082;-74
2023/05/31 06:15:22;;;;;;;1.85;0.80;;;;;;;13.49;46.85;101132.56;5044230;28;20633;-73
2023/05/31 06:17:50;;;;;;;2.03;1.00;;;;;;;13.46;46.40;101137.66;5043531;28;20525;-73
2023/05/31 06:20:19;;;;;;;3.58;0.93;;;;;;;13.41;46.43;101147.06;5044856;28;20698;-73
2023/05/31 06:22:49;;;;;;;2.60;1.00;;;;;;;13.33;46.82;101144.28;5042457;28;20048;-73
2023/05/31 06:25:19;;;;;;;3.03;1.05;;;;;;;13.28;47.36;101152.81;5041379;28;20077;-73
2023/05/31 06:27:47;;;;;;;3.40;0.90;;;;;;;13.23;47.35;101156.97;5042099;28;20072;-72
2023/05/31 06:30:16;;;;;;;2.03;0.60;;;;;;;13.14;46.92;101147.22;5041092;28;20116;-74
2023/05/31 06:32:45;;;;;;;1.75;0.80;;;;;;;13.10;47.25;101151.50;5043245;28;20651;-74
2023/05/31 06:35:14;;;;;;;1.17;0.77;;;;;;;13.08;46.87;101147.06;5042779;28;20049;-73
2023/05/31 06:37:42;;;;;;;3.65;1.10;;;;;;;13.02;47.42;101146.94;5039325;28;20095;-73
2023/05/31 06:40:13;;;;;;;5.00;0.70;;;;;;;12.98;47.17;101151.16;5041701;28;20059;-72
2023/05/31 06:42:42;;;;;;;2.75;0.80;;;;;;;12.94;46.79;101155.41;5043732;28;20099;-72
2023/05/31 06:45:11;;;;;;;1.80;0.95;;;;;;;12.92;47.70;101153.63;5039193;28;20049;-71
2023/05/31 06:47:40;;;;;;;3.15;1.02;;;;;;;12.88;48.12;101149.16;5040008;28;20182;-72
2023/05/31 06:50:11;;;;;;;1.42;0.80;;;;;;;12.82;47.55;101156.78;5044176;28;20079;-74
2023/05/31 06:52:41;;;;;;;1.58;0.80;;;;;;;12.78;47.54;101154.13;5046550;28;20111;-73
2023/05/31 06:55:10;;;;;;;3.17;1.00;;;;;;;12.79;47.38;101155.00;5041889;28;20478;-73
2023/05/31 06:57:40;;;;;;;1.83;0.93;;;;;;;12.76;47.43;101155.78;5043788;28;20055;-73
2023/05/31 07:00:10;;;;;;;1.58;0.70;;;;;;;12.73;48.26;101157.41;5037760;28;20057;-71
2023/05/31 07:02:39;;;;;;;2.60;1.10;;;;;;;12.68;47.74;101152.09;5042336;28;20117;-72
2023/05/31 07:05:07;;;;;;;2.90;1.30;;;;;;;12.64;48.67;101155.44;5048280;27;20049;-72
2023/05/31 07:07:36;;;;;;;2.28;0.90;;;;;;;12.58;48.32;101148.38;5058574;28;20049;-74
2023/05/31 07:10:05;;;;;;;1.75;0.90;;;;;;;12.53;48.80;101162.09;5057083;28;20056;-73
2023/05/31 07:12:38;;;;;;;2.15;1.08;;;;;;;12.50;48.47;101160.25;5062474;28;20076;-73
2023/05/31 07:15:10;;;;;;;5.57;1.20;;;;;;;12.46;48.34;101160.13;5061583;28;20106;-74
2023/05/31 07:17:38;;;;;;;3.72;1.10;;;;;;;12.41;48.04;101156.53;5062650;28;20084;-73
2023/05/31 07:20:17;;;;;;;4.47;1.38;;;;;;;12.39;48.47;101164.25;5065041;28;21142;-73
2023/05/31 07:22:45;;;;;;;2.10;1.30;;;;;;;12.36;48.06;101165.06;5065792;28;20059;-73
2023/05/31 07:25:14;;;;;;;4.65;1.25;;;;;;;12.36;48.44;101162.47;5061371;28;20052;-73
2023/05/31 07:27:43;;;;;;;1.23;0.80;;;;;;;12.34;48.28;101164.13;5061801;28;20033;-74
2023/05/31 07:30:17;;;;;;;3.65;1.33;;;;;;;12.30;47.83;101167.50;5063754;28;20093;-73
2023/05/31 07:32:45;;;;;;;2.38;1.33;;;;;;;12.29;48.24;101168.31;5070204;28;20056;-72
2023/05/31 07:35:14;;;;;;;6.20;1.35;;;;;;;12.25;48.23;101171.66;5063149;28;20592;-72
2023/05/31 07:37:42;;;;;;;4.10;1.25;;;;;;;12.22;48.56;101170.69;5059301;28;20566;-72
2023/05/31 07:40:13;;;;;;;2.13;1.27;;;;;;;12.23;48.93;101177.63;5068757;28;20561;-72
2023/05/31 07:42:43;;;;;;;2.83;1.02;;;;;;;12.21;48.67;101169.81;5066975;28;20506;-72
2023/05/31 07:45:14;;;;;;;2.15;1.10;;;;;;;12.23;48.08;101173.34;5066502;28;20055;-73
2023/05/31 07:47:42;;;;;;;3.67;1.35;;;;;;;12.22;49.33;101181.94;5058441;28;20118;-71
2023/05/31 07:50:11;;;;;;;1.70;0.80;;;;;;;12.20;48.73;101170.63;5065394;28;20441;-72
2023/05/31 07:52:41;;;;;;;5.70;1.33;;;;;;;12.21;49.09;101169.81;5067840;28;20036;-72
2023/05/31 07:55:12;;;;;;;3.90;1.15;;;;;;;12.21;49.21;101174.09;5065543;28;20057;-72
2023/05/31 07:57:41;;;;;;;2.83;1.08;;;;;;;12.19;49.46;101168.88;5065540;28;20135;-72
2023/05/31 08:00:11;;;;;;;2.40;1.08;;;;;;;12.19;49.17;101173.22;5060820;28;20044;-72
2023/05/31 08:02:41;;;;;;;2.90;1.10;;;;;;;12.16;49.19;101166.19;5066619;28;20044;-73
2023/05/31 08:05:11;;;;;;;3.85;1.20;;;;;;;12.16;49.61;101171.38;5071488;27;20069;-72
2023/05/31 08:07:39;;;;;;;2.25;1.05;;;;;;;12.14;49.60;101176.53;5046904;28;20531;-73
2023/05/31 08:10:09;;;;;;;2.30;1.15;;;;;;;12.14;50.68;101175.66;5047202;28;20461;-72
2023/05/31 08:12:38;;;;;;;1.38;0.95;;;;;;;12.13;50.29;101184.25;5047713;28;20050;-72
2023/05/31 08:15:09;;;;;;;4.45;1.40;;;;;;;12.10;49.40;101176.41;5045893;28;20056;-73
2023/05/31 08:17:38;;;;;;;2.95;1.10;;;;;;;12.08;49.65;101180.66;5045464;28;20115;-72
2023/05/31 08:20:10;;;;;;;2.13;1.23;;;;;;;12.05;50.78;101180.53;5044013;28;20170;-71
2023/05/31 08:22:38;;;;;;;4.68;1.30;;;;;;;12.02;51.05;101178.75;5047937;28;20041;-72
2023/05/31 08:25:08;;;;;;;5.28;1.17;;;;;;;11.97;52.34;101182.03;5043928;28;20112;-72
2023/05/31 08:27:36;;;;;;;1.38;0.93;;;;;;;11.95;51.94;101193.22;5041081;28;20095;-72
2023/05/31 08:30:06;;;;;;;1.55;1.02;;;;;;;11.93;50.81;101179.38;5046499;28;20052;-72
2023/05/31 08:32:35;;;;;;;4.45;1.27;;;;;;;11.93;50.85;101194.03;5042878;28;20042;-72
2023/05/31 08:35:03;;;;;;;4.38;1.77;;;;;;;11.92;52.22;101193.16;5046739;28;20045;-72
2023/05/31 08:37:33;;;;;;;3.15;1.20;;;;;;;11.89;52.61;101193.06;5047293;28;20130;-73
2023/05/31 08:40:03;;;;;;;4.88;1.90;;;;;;;11.89;52.46;101195.66;5041769;28;20057;-73
2023/05/31 08:42:39;;;;;;;1.88;0.93;;;;;;;11.87;53.02;101193.81;5040728;28;20052;-73
2023/05/31 08:45:13;;;;;;;2.20;1.27;;;;;;;11.85;52.72;101196.34;5044566;28;20115;-72
2023/05/31 08:47:45;;;;;;;1.00;0.80;;;;;;;11.82;52.43;101185.00;5043445;28;20411;-72
2023/05/31 08:50:13;;;;;;;;;;;;;;;11.80;52.47;101194.47;5044779;28;20057;-71
2023/05/31 08:52:45;;;;;;;4.88;1.63;;;;;;;11.77;52.07;101191.75;5042712;28;20476;-71
2023/05/31 08:55:14;;;;;;;1.58;0.93;;;;;;;11.75;53.53;101186.53;5045851;28;20051;-73
2023/05/31 08:57:43;;;;;;;2.28;1.10;;;;;;;11.76;53.86;101190.88;5046192;28;20053;-72
2023/05/31 09:00:13;;;;;;;3.90;1.35;;;;;;;11.73;53.13;101185.59;5043462;28;20054;-72
2023/05/31 09:02:43;;;;;;;3.22;1.48;;;;;;;11.70;53.83;101193.28;5044895;28;20053;-72
2023/05/31 09:05:14;;;;;;;3.92;1.70;;;;;;;11.67;53.33;101204.44;5048237;28;20052;-71
2023/05/31 09:07:49;;;;;;;2.15;1.10;;;;;;;11.63;53.56;101194.78;5038316;28;20037;-72
2023/05/31 09:10:19;;;;;;;3.78;1.90;;;;;;;11.64;53.64;101196.56;5046192;28;20057;-72
2023/05/31 09:12:48;;;;;;;2.55;1.60;;;;;;;11.65;54.82;101202.63;5044365;28;20284;-71
2023/05/31 09:15:20;;;;;;;2.30;1.30;;;;;;;11.64;54.64;101206.06;5048080;28;20052;-72
2023/05/31 09:17:48;;;;;;;3.20;1.35;;;;;;;11.61;55.10;101201.63;5047244;28;20420;-73
2023/05/31 09:20:17;;;;;;;3.25;1.15;;;;;;;11.58;56.22;101206.72;5047364;28;20053;-72
2023/05/31 09:22:51;;;;;;;2.35;1.20;;;;;;;11.57;55.41;101204.97;5042479;28;20155;-73
2023/05/31 09:25:19;;;;;;;3.33;1.20;;;;;;;11.60;56.28;101211.97;5044060;28;20053;-72
2023/05/31 09:27:51;;;;;;;3.65;1.45;;;;;;;11.61;56.44;101218.91;5043606;28;20128;-72
2023/05/31 09:30:19;;;;;;;2.90;1.50;;;;;;;11.60;56.52;101215.44;5042487;28;20053;-74
2023/05/31 09:32:55;;;;;;;2.35;1.48;;;;;;;11.59;56.27;101218.88;5043447;28;20041;-72
2023/05/31 09:35:27;;;;;;;2.92;1.45;;;;;;;11.57;55.46;101214.44;5041920;28;20072;-72
2023/05/31 09:37:57;;;;;;;2.05;0.90;;;;;;;11.56;55.65;101213.56;5045456;28;20138;-72
2023/05/31 09:40:27;;;;;;;2.53;1.25;;;;;;;11.56;55.30;101215.28;5046319;28;20041;-73
2023/05/31 09:42:56;;;;;;;5.15;1.23;;;;;;;11.55;55.76;101216.13;5038619;28;20051;-72
2023/05/31 09:45:27;;;;;;;1.27;1.02;;;;;;;11.53;56.42;101211.75;5043515;28;20063;-72
2023/05/31 09:47:56;;;;;;;7.50;1.38;;;;;;;11.52;56.35;101211.69;5040055;28;20084;-72
2023/05/31 09:50:25;;;;;;;1.98;1.10;;;;;;;11.51;56.36;101215.13;5042130;28;20115;-73
2023/05/31 09:52:59;;;;;;;5.30;1.40;;;;;;;11.52;56.28;101215.19;5039865;28;20133;-73
2023/05/31 09:55:41;;;;;;;3.25;1.10;;;;;;;11.43;56.03;101204.53;5042620;28;20160;-73
2023/05/31 09:58:10;;;;;;;3.85;1.00;;;;;;;11.45;56.62;101221.00;5047767;28;20084;-73
2023/05/31 10:00:49;;;;;;;3.08;0.98;;;;;;;11.43;55.44;101219.16;5046708;28;20051;-73
2023/05/31 10:03:17;;;;;;;2.80;1.48;;;;;;;11.37;55.33;101218.97;5041442;28;20056;-72
2023/05/31 10:05:46;;;;;;;4.97;1.60;;;;;;;11.39;55.35;101219.91;5041387;27;20049;-73
2023/05/31 10:08:17;;;;;;;3.92;1.25;;;;;;;11.42;55.33;101223.47;5040383;28;20131;-73
2023/05/31 10:10:49;;;;;;;2.72;1.58;;;;;;;11.42;55.48;101223.47;5041204;28;20060;-73
2023/05/31 10:13:20;;;;;;;3.42;1.17;;;;;;;11.42;55.55;101225.19;5044885;28;20044;-73
2023/05/31 10:15:50;;;;;;;4.93;1.35;;;;;;;11.44;55.20;101228.72;5043463;28;20037;-73
2023/05/31 10:18:23;;;;;;;2.70;1.33;;;;;;;11.43;55.31;101227.84;5043336;28;20056;-73
2023/05/31 10:20:57;;;;;;;4.90;1.25;;;;;;;11.45;56.18;101235.66;5043989;28;20181;-73
2023/05/31 10:23:28;;;;;;;3.97;1.40;;;;;;;11.45;56.55;101236.56;5039633;28;20048;-73
2023/05/31 10:26:06;;;;;;;4.10;1.52;;;;;;;11.40;55.97;101237.22;5039185;28;20140;-73
2023/05/31 10:28:40;;;;;;;2.13;1.25;;;;;;;11.39;57.01;101235.47;5038946;28;20056;-73
2023/05/31 10:31:11;;;;;;;2.17;1.02;;;;;;;11.37;57.34;101230.22;5038234;28;20044;-71
2023/05/31 10:33:47;;;;;;;2.22;1.05;;;;;;;11.34;56.19;101230.13;5041709;28;20047;-73
2023/05/31 10:36:16;;;;;;;5.70;1.23;;;;;;;11.31;56.36;101237.78;5045015;28;20482;-73
2023/05/31 10:38:53;;;;;;;3.15;1.75;;;;;;;11.30;56.62;101236.03;5041192;28;20045;-73
2023/05/31 10:41:32;;;;;;;4.22;2.17;;;;;;;11.31;55.51;101238.69;5040372;28;20052;-73
2023/05/31 10:44:07;;;;;;;5.50;1.27;;;;;;;11.33;57.02;101241.28;5043823;28;20172;-72
2023/05/31 10:46:40;;;;;;;4.20;1.75;;;;;;;11.33;56.30;101242.16;5041499;28;20978;-72
2023/05/31 10:49:11;;;;;;;8.38;1.58;;;;;;;11.33;56.85;101241.28;5043439;28;20072;-72
2023/05/31 10:51:41;;;;;;;5.50;1.52;;;;;;;11.35;57.69;101244.81;5040214;28;20059;-73
2023/05/31 10:54:15;;;;;;;2.53;1.20;;;;;;;11.36;57.33;101241.44;5052336;28;20048;-73
2023/05/31 10:56:54;;;;;;;4.18;1.52;;;;;;;11.35;55.94;101244.81;5047633;28;20040;-72
2023/05/31 10:59:25;;;;;;;4.88;1.95;;;;;;;11.37;56.77;101243.16;5051172;28;20152;-73
2023/05/31 11:01:54;;;;;;;5.78;1.60;;;;;;;11.40;56.24;101243.25;5057343;28;20052;-72
2023/05/31 11:04:24;;;;;;;5.25;1.25;;;;;;;11.42;55.61;101239.03;5056905;28;20051;-73
2023/05/31 11:06:55;;;;;;;3.13;1.40;;;;;;;11.41;55.18;101239.84;5082634;28;20052;-73
2023/05/31 11:09:26;;;;;;;4.00;1.40;;;;;;;11.40;55.97;101235.50;5080018;28;20048;-72
2023/05/31 11:11:58;;;;;;;4.40;2.20;;;;;;;11.40;55.68;101243.25;5067716;28;20044;-72
2023/05/31 11:14:32;;;;;;;3.22;1.60;;;;;;;11.38;55.78;101239.72;5060236;28;20180;-73
2023/05/31 11:17:17;;;;;;;2.30;1.13;;;;;;;11.39;56.42;101243.22;5064033;28;20048;-73
2023/05/31 11:19:52;;;;;;;1.48;0.95;;;;;;;11.40;56.23;101237.22;5066979;28;20570;-73
2023/05/31 11:22:27;;;;;;;2.65;0.93;;;;;;;11.41;56.05;101247.63;5058463;28;20497;-73
2023/05/31 11:24:59;;;;;;;4.18;1.20;;;;;;;11.42;56.43;101245.91;5060012;28;20039;-73
2023/05/31 11:27:37;;;;;;;4.57;1.38;;;;;;;11.39;55.33;101248.41;5069678;28;20052;-73
2023/05/31 11:30:09;;;;;;;4.88;1.90;;;;;;;11.35;55.77;101242.22;5044820;28;20227;-71
2023/05/31 11:33:16;;;;;;;3.30;1.20;;;;;;;11.30;57.02;101251.56;5058367;28;20442;-73
2023/05/31 11:35:45;;;;;;;5.07;1.27;;;;;;;11.26;56.20;101249.69;5046149;28;20068;-72
2023/05/31 11:38:15;;;;;;;1.55;0.93;;;;;;;11.23;55.82;101247.00;5054894;28;20505;-73
2023/05/31 11:40:45;;;;;;;2.38;1.10;;;;;;;11.13;55.34;101242.31;5044839;28;20130;-73